Enter the Airport ICAO Code

Search by Airport or City

Current Weather

GCXO | Tenerife-North Airport (Los Rodeos Airport)

Tenerife, Canary Islands, Spain

Last Update 32 Minutes Ago

Light Drizzle

Temperature of 12 ºC

Moderate to Strong Winds from NorthWest with Gusts

Temperature

12 ºC

Dew Point Temperature

11 ºC

Relative Humidity

93.63 %

Wind Direction

NorthWest (320º, Without Significant Variations)

Wind Velocity

30 km/h (16 kt)

Gusts

48 km/h (26 kt)

Visibility

Greater than 10 Kilometers

Sea Level Pressure

1022 hPa (Hectopascals)

Layers of Clouds

30% to 60% of Sky Covered from 457 mts (1500 ft) Above Ground Level.

60% to 90% of Sky Covered from 610 mts (2000 ft) Above Ground Level.

METAR GCXO 090900Z 32016G26KT 9999 -DZ SCT015 BKN020 12/11 Q1022 NOSIG

Weather Forecast

GCXO | Tenerife-North Airport (Los Rodeos Airport)

Tenerife, Canary Islands, Spain

Forecast valid for the next 23 Hours

From now on it is expected:

Mostly Cloudy Sky

Moderate to Strong Winds from NorthWest

From now on it is expected 13 hours with intermittent periods of:

Moderate to Strong Winds from NorthWest with Gusts

Maximum Temperature

15 ºC in 4 Hours

Minimum Temperature

11 ºC in 21 Hours

TAF GCXO 090800Z 0909/1009 31018KT 9999 BKN015 TX15/0914Z TN11/1007Z PROB30 TEMPO 0909/0912 3000 DZRA BCFG BKN006 PROB30 TEMPO 0909/0923 30019G30KT